sensor_id;sensor_type;location;lat;lon;timestamp;temperature;humidity
17364;DHT22;8799;43.594;13.526;2022-08-25T00:02:10;26.50;80.60
17364;DHT22;8799;43.594;13.526;2022-08-25T00:04:39;26.50;80.60
17364;DHT22;8799;43.594;13.526;2022-08-25T00:07:06;26.50;80.60
17364;DHT22;8799;43.594;13.526;2022-08-25T00:09:34;26.50;80.70
17364;DHT22;8799;43.594;13.526;2022-08-25T00:12:03;26.50;80.60
17364;DHT22;8799;43.594;13.526;2022-08-25T00:14:33;26.50;80.60
17364;DHT22;8799;43.594;13.526;2022-08-25T00:17:02;26.50;80.70
17364;DHT22;8799;43.594;13.526;2022-08-25T00:19:33;26.50;80.70
17364;DHT22;8799;43.594;13.526;2022-08-25T00:22:03;26.50;80.80
17364;DHT22;8799;43.594;13.526;2022-08-25T00:24:31;26.50;80.80
17364;DHT22;8799;43.594;13.526;2022-08-25T00:26:58;26.50;80.70
17364;DHT22;8799;43.594;13.526;2022-08-25T00:29:29;26.50;80.70
17364;DHT22;8799;43.594;13.526;2022-08-25T00:31:56;26.50;80.70
17364;DHT22;8799;43.594;13.526;2022-08-25T00:34:33;26.50;80.80
17364;DHT22;8799;43.594;13.526;2022-08-25T00:37:02;26.50;80.80
17364;DHT22;8799;43.594;13.526;2022-08-25T00:39:32;26.50;80.90
17364;DHT22;8799;43.594;13.526;2022-08-25T00:42:00;26.50;80.90
17364;DHT22;8799;43.594;13.526;2022-08-25T00:44:33;26.50;80.80
17364;DHT22;8799;43.594;13.526;2022-08-25T00:47:02;26.50;80.90
17364;DHT22;8799;43.594;13.526;2022-08-25T00:49:35;26.50;80.90
17364;DHT22;8799;43.594;13.526;2022-08-25T00:52:06;26.50;80.90
17364;DHT22;8799;43.594;13.526;2022-08-25T00:54:38;26.50;80.90
17364;DHT22;8799;43.594;13.526;2022-08-25T00:57:08;26.50;80.90
17364;DHT22;8799;43.594;13.526;2022-08-25T00:59:40;26.50;81.00
17364;DHT22;8799;43.594;13.526;2022-08-25T01:02:08;26.50;81.00
17364;DHT22;8799;43.594;13.526;2022-08-25T01:04:37;26.50;81.00
17364;DHT22;8799;43.594;13.526;2022-08-25T01:07:06;26.50;81.00
17364;DHT22;8799;43.594;13.526;2022-08-25T01:09:37;26.50;81.00
17364;DHT22;8799;43.594;13.526;2022-08-25T01:12:06;26.50;81.00
17364;DHT22;8799;43.594;13.526;2022-08-25T01:14:34;26.50;81.00
17364;DHT22;8799;43.594;13.526;2022-08-25T01:17:04;26.50;81.00
17364;DHT22;8799;43.594;13.526;2022-08-25T01:19:32;26.50;81.00
17364;DHT22;8799;43.594;13.526;2022-08-25T01:22:01;26.60;81.00
17364;DHT22;8799;43.594;13.526;2022-08-25T01:24:34;26.50;81.00
17364;DHT22;8799;43.594;13.526;2022-08-25T01:27:03;26.60;81.10
17364;DHT22;8799;43.594;13.526;2022-08-25T01:29:31;26.50;81.10
17364;DHT22;8799;43.594;13.526;2022-08-25T01:32:02;26.50;81.20
17364;DHT22;8799;43.594;13.526;2022-08-25T01:34:33;26.50;81.20
17364;DHT22;8799;43.594;13.526;2022-08-25T01:37:05;26.50;81.20
17364;DHT22;8799;43.594;13.526;2022-08-25T01:39:33;26.50;81.30
17364;DHT22;8799;43.594;13.526;2022-08-25T01:42:32;26.50;81.20
17364;DHT22;8799;43.594;13.526;2022-08-25T01:45:04;26.50;81.20
17364;DHT22;8799;43.594;13.526;2022-08-25T01:47:32;26.50;81.20
17364;DHT22;8799;43.594;13.526;2022-08-25T01:50:00;26.50;81.20
17364;DHT22;8799;43.594;13.526;2022-08-25T01:52:36;26.50;81.30
17364;DHT22;8799;43.594;13.526;2022-08-25T01:55:07;26.50;81.20
17364;DHT22;8799;43.594;13.526;2022-08-25T01:57:35;26.50;81.20
17364;DHT22;8799;43.594;13.526;2022-08-25T02:00:05;26.50;81.10
17364;DHT22;8799;43.594;13.526;2022-08-25T02:02:33;26.50;81.10
17364;DHT22;8799;43.594;13.526;2022-08-25T02:05:07;26.50;81.10
17364;DHT22;8799;43.594;13.526;2022-08-25T02:07:37;26.50;81.10
17364;DHT22;8799;43.594;13.526;2022-08-25T02:10:06;26.50;81.20
17364;DHT22;8799;43.594;13.526;2022-08-25T02:15:09;26.50;81.20
17364;DHT22;8799;43.594;13.526;2022-08-25T02:17:37;26.50;81.20
17364;DHT22;8799;43.594;13.526;2022-08-25T02:20:06;26.50;81.30
17364;DHT22;8799;43.594;13.526;2022-08-25T02:22:34;26.50;81.40
17364;DHT22;8799;43.594;13.526;2022-08-25T02:25:04;26.50;81.50
17364;DHT22;8799;43.594;13.526;2022-08-25T02:27:32;26.50;81.60
17364;DHT22;8799;43.594;13.526;2022-08-25T02:29:59;26.50;81.70
17364;DHT22;8799;43.594;13.526;2022-08-25T02:32:27;26.50;81.80
17364;DHT22;8799;43.594;13.526;2022-08-25T02:34:55;26.50;81.90
17364;DHT22;8799;43.594;13.526;2022-08-25T02:37:22;26.50;81.90
17364;DHT22;8799;43.594;13.526;2022-08-25T02:39:50;26.50;82.00
17364;DHT22;8799;43.594;13.526;2022-08-25T02:42:22;26.50;82.00
17364;DHT22;8799;43.594;13.526;2022-08-25T02:44:51;26.50;82.10
17364;DHT22;8799;43.594;13.526;2022-08-25T02:47:21;26.50;82.20
17364;DHT22;8799;43.594;13.526;2022-08-25T02:49:49;26.50;82.10
17364;DHT22;8799;43.594;13.526;2022-08-25T02:52:17;26.50;82.20
17364;DHT22;8799;43.594;13.526;2022-08-25T02:54:44;26.50;82.40
17364;DHT22;8799;43.594;13.526;2022-08-25T02:57:12;26.50;82.40
17364;DHT22;8799;43.594;13.526;2022-08-25T02:59:41;26.50;82.30
17364;DHT22;8799;43.594;13.526;2022-08-25T03:02:11;26.50;82.30
17364;DHT22;8799;43.594;13.526;2022-08-25T03:04:40;26.60;82.20
17364;DHT22;8799;43.594;13.526;2022-08-25T03:07:08;26.60;82.50
17364;DHT22;8799;43.594;13.526;2022-08-25T03:09:36;26.60;82.60
17364;DHT22;8799;43.594;13.526;2022-08-25T03:12:05;26.70;82.60
17364;DHT22;8799;43.594;13.526;2022-08-25T03:14:33;26.70;82.60
17364;DHT22;8799;43.594;13.526;2022-08-25T03:17:03;26.70;82.20
17364;DHT22;8799;43.594;13.526;2022-08-25T03:19:31;26.70;82.40
17364;DHT22;8799;43.594;13.526;2022-08-25T03:21:59;26.60;82.40
17364;DHT22;8799;43.594;13.526;2022-08-25T03:24:27;26.60;82.50
17364;DHT22;8799;43.594;13.526;2022-08-25T03:26:55;26.60;82.60
17364;DHT22;8799;43.594;13.526;2022-08-25T03:29:22;26.60;82.60
17364;DHT22;8799;43.594;13.526;2022-08-25T03:31:50;26.60;82.70
17364;DHT22;8799;43.594;13.526;2022-08-25T03:34:21;26.60;82.70
17364;DHT22;8799;43.594;13.526;2022-08-25T03:36:51;26.60;82.70
17364;DHT22;8799;43.594;13.526;2022-08-25T03:39:20;26.60;82.70
17364;DHT22;8799;43.594;13.526;2022-08-25T03:41:49;26.60;82.70
17364;DHT22;8799;43.594;13.526;2022-08-25T03:44:18;26.60;82.80
17364;DHT22;8799;43.594;13.526;2022-08-25T03:46:49;26.60;82.80
17364;DHT22;8799;43.594;13.526;2022-08-25T03:49:21;26.60;82.80
17364;DHT22;8799;43.594;13.526;2022-08-25T03:51:51;26.60;82.80
17364;DHT22;8799;43.594;13.526;2022-08-25T03:54:22;26.60;82.80
17364;DHT22;8799;43.594;13.526;2022-08-25T03:56:50;26.60;82.70
17364;DHT22;8799;43.594;13.526;2022-08-25T03:59:18;26.60;82.70
17364;DHT22;8799;43.594;13.526;2022-08-25T04:01:46;26.60;82.80
17364;DHT22;8799;43.594;13.526;2022-08-25T04:04:15;26.60;82.70
17364;DHT22;8799;43.594;13.526;2022-08-25T04:06:44;26.60;82.70
17364;DHT22;8799;43.594;13.526;2022-08-25T04:09:12;26.60;82.80
17364;DHT22;8799;43.594;13.526;2022-08-25T04:11:40;26.60;82.80
17364;DHT22;8799;43.594;13.526;2022-08-25T04:14:07;26.60;82.80
17364;DHT22;8799;43.594;13.526;2022-08-25T04:16:35;26.60;82.80
17364;DHT22;8799;43.594;13.526;2022-08-25T04:19:05;26.60;82.80
17364;DHT22;8799;43.594;13.526;2022-08-25T04:21:34;26.50;82.80
17364;DHT22;8799;43.594;13.526;2022-08-25T04:24:04;26.60;82.70
17364;DHT22;8799;43.594;13.526;2022-08-25T04:26:34;26.50;82.70
17364;DHT22;8799;43.594;13.526;2022-08-25T04:29:03;26.60;82.70
17364;DHT22;8799;43.594;13.526;2022-08-25T04:31:32;26.50;82.80
17364;DHT22;8799;43.594;13.526;2022-08-25T04:34:01;26.60;82.80
17364;DHT22;8799;43.594;13.526;2022-08-25T04:36:29;26.50;82.70
17364;DHT22;8799;43.594;13.526;2022-08-25T04:38:57;26.50;82.70
17364;DHT22;8799;43.594;13.526;2022-08-25T04:41:27;26.50;82.70
17364;DHT22;8799;43.594;13.526;2022-08-25T04:43:57;26.50;82.60
17364;DHT22;8799;43.594;13.526;2022-08-25T04:46:27;26.50;82.60
17364;DHT22;8799;43.594;13.526;2022-08-25T04:48:56;26.50;82.50
17364;DHT22;8799;43.594;13.526;2022-08-25T04:51:27;26.50;82.50
17364;DHT22;8799;43.594;13.526;2022-08-25T04:53:58;26.50;82.50
17364;DHT22;8799;43.594;13.526;2022-08-25T04:56:28;26.50;82.50
17364;DHT22;8799;43.594;13.526;2022-08-25T04:58:55;26.50;82.30
17364;DHT22;8799;43.594;13.526;2022-08-25T05:01:24;26.50;82.20
17364;DHT22;8799;43.594;13.526;2022-08-25T05:03:54;26.50;82.10
17364;DHT22;8799;43.594;13.526;2022-08-25T05:06:22;26.50;82.00
17364;DHT22;8799;43.594;13.526;2022-08-25T05:08:50;26.50;81.90
17364;DHT22;8799;43.594;13.526;2022-08-25T05:11:18;26.50;82.00
17364;DHT22;8799;43.594;13.526;2022-08-25T05:13:49;26.50;81.90
17364;DHT22;8799;43.594;13.526;2022-08-25T05:16:17;26.50;81.80
17364;DHT22;8799;43.594;13.526;2022-08-25T05:18:46;26.50;81.70
17364;DHT22;8799;43.594;13.526;2022-08-25T05:21:16;26.50;81.70
17364;DHT22;8799;43.594;13.526;2022-08-25T05:23:45;26.50;81.80
17364;DHT22;8799;43.594;13.526;2022-08-25T05:26:14;26.50;81.70
17364;DHT22;8799;43.594;13.526;2022-08-25T05:28:42;26.50;81.70
17364;DHT22;8799;43.594;13.526;2022-08-25T05:31:14;26.50;81.80
17364;DHT22;8799;43.594;13.526;2022-08-25T05:33:42;26.50;81.60
17364;DHT22;8799;43.594;13.526;2022-08-25T05:36:12;26.50;81.50
17364;DHT22;8799;43.594;13.526;2022-08-25T05:38:41;26.50;81.60
17364;DHT22;8799;43.594;13.526;2022-08-25T05:41:11;26.50;81.40
17364;DHT22;8799;43.594;13.526;2022-08-25T05:43:41;26.50;81.50
17364;DHT22;8799;43.594;13.526;2022-08-25T05:46:10;26.50;81.40
17364;DHT22;8799;43.594;13.526;2022-08-25T05:48:40;26.50;81.40
17364;DHT22;8799;43.594;13.526;2022-08-25T05:51:09;26.50;81.40
17364;DHT22;8799;43.594;13.526;2022-08-25T05:53:39;26.50;81.20
17364;DHT22;8799;43.594;13.526;2022-08-25T05:56:07;26.50;81.30
17364;DHT22;8799;43.594;13.526;2022-08-25T05:58:36;26.50;81.30
17364;DHT22;8799;43.594;13.526;2022-08-25T06:01:04;26.50;81.20
17364;DHT22;8799;43.594;13.526;2022-08-25T06:03:47;26.50;81.50
17364;DHT22;8799;43.594;13.526;2022-08-25T06:06:15;26.50;81.20
17364;DHT22;8799;43.594;13.526;2022-08-25T06:08:43;26.50;81.00
17364;DHT22;8799;43.594;13.526;2022-08-25T06:11:11;26.50;81.00
17364;DHT22;8799;43.594;13.526;2022-08-25T06:13:39;26.40;81.10
17364;DHT22;8799;43.594;13.526;2022-08-25T06:16:07;26.40;81.10
17364;DHT22;8799;43.594;13.526;2022-08-25T06:18:35;26.40;81.10
17364;DHT22;8799;43.594;13.526;2022-08-25T06:21:09;26.40;80.70
17364;DHT22;8799;43.594;13.526;2022-08-25T06:23:37;26.40;81.10
17364;DHT22;8799;43.594;13.526;2022-08-25T06:26:06;26.40;81.20
17364;DHT22;8799;43.594;13.526;2022-08-25T06:28:36;26.40;80.80
17364;DHT22;8799;43.594;13.526;2022-08-25T06:31:04;26.30;80.60
17364;DHT22;8799;43.594;13.526;2022-08-25T06:33:32;26.30;80.80
17364;DHT22;8799;43.594;13.526;2022-08-25T06:36:00;26.30;80.80
17364;DHT22;8799;43.594;13.526;2022-08-25T06:38:29;26.30;80.80
17364;DHT22;8799;43.594;13.526;2022-08-25T06:40:57;26.40;80.90
17364;DHT22;8799;43.594;13.526;2022-08-25T06:43:25;26.30;81.00
17364;DHT22;8799;43.594;13.526;2022-08-25T06:45:52;26.30;81.00
17364;DHT22;8799;43.594;13.526;2022-08-25T06:48:20;26.30;80.90
17364;DHT22;8799;43.594;13.526;2022-08-25T06:50:48;26.20;80.90
17364;DHT22;8799;43.594;13.526;2022-08-25T06:53:16;26.20;81.20
17364;DHT22;8799;43.594;13.526;2022-08-25T06:55:54;26.20;81.40
17364;DHT22;8799;43.594;13.526;2022-08-25T06:58:22;26.20;81.40
17364;DHT22;8799;43.594;13.526;2022-08-25T07:00:50;26.20;81.80
17364;DHT22;8799;43.594;13.526;2022-08-25T07:03:18;26.20;81.90
17364;DHT22;8799;43.594;13.526;2022-08-25T07:05:50;26.20;82.80
17364;DHT22;8799;43.594;13.526;2022-08-25T07:24:49;26.10;83.30
17364;DHT22;8799;43.594;13.526;2022-08-25T07:27:17;26.20;84.20
17364;DHT22;8799;43.594;13.526;2022-08-25T07:29:45;26.20;84.30
17364;DHT22;8799;43.594;13.526;2022-08-25T07:32:15;26.20;84.40
17364;DHT22;8799;43.594;13.526;2022-08-25T07:34:43;26.30;84.90
17364;DHT22;8799;43.594;13.526;2022-08-25T07:37:27;26.20;85.10
17364;DHT22;8799;43.594;13.526;2022-08-25T07:40:01;26.30;85.40
17364;DHT22;8799;43.594;13.526;2022-08-25T07:42:29;26.30;85.70
17364;DHT22;8799;43.594;13.526;2022-08-25T07:44:57;26.30;86.40
17364;DHT22;8799;43.594;13.526;2022-08-25T07:47:25;26.30;86.50
17364;DHT22;8799;43.594;13.526;2022-08-25T07:49:52;26.30;86.60
17364;DHT22;8799;43.594;13.526;2022-08-25T07:52:20;26.30;86.80
17364;DHT22;8799;43.594;13.526;2022-08-25T07:54:50;26.30;87.10
17364;DHT22;8799;43.594;13.526;2022-08-25T07:57:21;26.30;87.50
17364;DHT22;8799;43.594;13.526;2022-08-25T07:59:51;26.30;87.80
17364;DHT22;8799;43.594;13.526;2022-08-25T08:02:18;26.30;87.90
17364;DHT22;8799;43.594;13.526;2022-08-25T08:04:47;26.40;88.50
17364;DHT22;8799;43.594;13.526;2022-08-25T08:07:17;26.40;89.00
17364;DHT22;8799;43.594;13.526;2022-08-25T08:09:46;26.40;89.20
17364;DHT22;8799;43.594;13.526;2022-08-25T08:12:14;26.40;89.70
17364;DHT22;8799;43.594;13.526;2022-08-25T08:14:44;26.40;90.20
17364;DHT22;8799;43.594;13.526;2022-08-25T08:17:12;26.40;90.40
17364;DHT22;8799;43.594;13.526;2022-08-25T08:19:40;26.40;90.60
17364;DHT22;8799;43.594;13.526;2022-08-25T08:22:08;26.50;90.90
17364;DHT22;8799;43.594;13.526;2022-08-25T08:24:39;26.50;91.50
17364;DHT22;8799;43.594;13.526;2022-08-25T08:27:10;26.50;91.50
17364;DHT22;8799;43.594;13.526;2022-08-25T08:29:39;26.50;92.60
17364;DHT22;8799;43.594;13.526;2022-08-25T08:32:11;26.50;92.50
17364;DHT22;8799;43.594;13.526;2022-08-25T08:34:40;26.50;92.80
17364;DHT22;8799;43.594;13.526;2022-08-25T08:37:08;26.50;92.90
17364;DHT22;8799;43.594;13.526;2022-08-25T08:39:36;26.50;93.10
17364;DHT22;8799;43.594;13.526;2022-08-25T08:42:18;26.50;93.10
17364;DHT22;8799;43.594;13.526;2022-08-25T08:45:03;26.50;93.30
17364;DHT22;8799;43.594;13.526;2022-08-25T08:47:47;26.50;93.60
17364;DHT22;8799;43.594;13.526;2022-08-25T08:50:25;26.50;93.80
17364;DHT22;8799;43.594;13.526;2022-08-25T08:53:01;26.50;93.60
17364;DHT22;8799;43.594;13.526;2022-08-25T08:55:33;26.60;93.50
17364;DHT22;8799;43.594;13.526;2022-08-25T08:58:07;26.60;93.40
17364;DHT22;8799;43.594;13.526;2022-08-25T09:00:39;26.60;93.30
17364;DHT22;8799;43.594;13.526;2022-08-25T09:03:15;26.60;93.60
17364;DHT22;8799;43.594;13.526;2022-08-25T09:05:47;26.60;93.60
17364;DHT22;8799;43.594;13.526;2022-08-25T09:08:16;26.60;93.70
17364;DHT22;8799;43.594;13.526;2022-08-25T09:10:53;26.60;93.70
17364;DHT22;8799;43.594;13.526;2022-08-25T09:13:30;26.60;93.40
17364;DHT22;8799;43.594;13.526;2022-08-25T09:16:04;26.60;93.40
17364;DHT22;8799;43.594;13.526;2022-08-25T09:19:00;26.60;93.50
17364;DHT22;8799;43.594;13.526;2022-08-25T09:21:36;26.60;93.40
17364;DHT22;8799;43.594;13.526;2022-08-25T09:24:22;26.60;93.40
17364;DHT22;8799;43.594;13.526;2022-08-25T09:27:00;26.70;93.10
17364;DHT22;8799;43.594;13.526;2022-08-25T09:29:48;26.70;93.00
17364;DHT22;8799;43.594;13.526;2022-08-25T09:32:21;26.70;93.00
17364;DHT22;8799;43.594;13.526;2022-08-25T09:34:51;26.70;93.20
17364;DHT22;8799;43.594;13.526;2022-08-25T09:37:22;26.70;93.40
17364;DHT22;8799;43.594;13.526;2022-08-25T09:39:50;26.70;94.00
17364;DHT22;8799;43.594;13.526;2022-08-25T09:42:19;26.70;94.20
17364;DHT22;8799;43.594;13.526;2022-08-25T09:44:47;26.80;94.70
17364;DHT22;8799;43.594;13.526;2022-08-25T09:47:21;26.70;94.80
17364;DHT22;8799;43.594;13.526;2022-08-25T09:49:57;26.80;95.00
17364;DHT22;8799;43.594;13.526;2022-08-25T09:52:32;26.80;95.00
17364;DHT22;8799;43.594;13.526;2022-08-25T09:55:21;26.80;95.00
17364;DHT22;8799;43.594;13.526;2022-08-25T09:57:51;26.80;95.10
17364;DHT22;8799;43.594;13.526;2022-08-25T10:00:25;26.80;95.30
17364;DHT22;8799;43.594;13.526;2022-08-25T10:03:07;26.90;95.50
17364;DHT22;8799;43.594;13.526;2022-08-25T10:05:56;26.80;95.50
17364;DHT22;8799;43.594;13.526;2022-08-25T10:08:35;26.90;95.70
17364;DHT22;8799;43.594;13.526;2022-08-25T10:14:01;26.90;96.10
17364;DHT22;8799;43.594;13.526;2022-08-25T10:16:35;27.00;96.30
17364;DHT22;8799;43.594;13.526;2022-08-25T10:19:07;27.00;96.50
17364;DHT22;8799;43.594;13.526;2022-08-25T10:21:38;27.00;96.40
17364;DHT22;8799;43.594;13.526;2022-08-25T10:24:08;27.10;96.50
17364;DHT22;8799;43.594;13.526;2022-08-25T10:26:51;27.10;96.00
17364;DHT22;8799;43.594;13.526;2022-08-25T10:30:04;27.10;96.20
17364;DHT22;8799;43.594;13.526;2022-08-25T10:32:50;27.00;96.70
17364;DHT22;8799;43.594;13.526;2022-08-25T10:35:23;27.00;96.70
17364;DHT22;8799;43.594;13.526;2022-08-25T10:38:03;27.00;96.90
17364;DHT22;8799;43.594;13.526;2022-08-25T10:40:42;27.00;97.40
17364;DHT22;8799;43.594;13.526;2022-08-25T10:43:18;27.00;97.60
17364;DHT22;8799;43.594;13.526;2022-08-25T10:45:59;27.00;97.70
17364;DHT22;8799;43.594;13.526;2022-08-25T10:48:46;27.10;96.50
17364;DHT22;8799;43.594;13.526;2022-08-25T10:51:31;27.10;96.10
17364;DHT22;8799;43.594;13.526;2022-08-25T10:54:06;27.00;96.50
17364;DHT22;8799;43.594;13.526;2022-08-25T10:56:42;27.10;96.00
17364;DHT22;8799;43.594;13.526;2022-08-25T10:59:29;27.10;95.20
17364;DHT22;8799;43.594;13.526;2022-08-25T11:02:18;27.10;93.50
17364;DHT22;8799;43.594;13.526;2022-08-25T11:04:58;27.20;93.50
17364;DHT22;8799;43.594;13.526;2022-08-25T11:07:34;27.10;92.10
17364;DHT22;8799;43.594;13.526;2022-08-25T11:10:11;27.10;91.60
17364;DHT22;8799;43.594;13.526;2022-08-25T11:12:43;27.10;89.30
17364;DHT22;8799;43.594;13.526;2022-08-25T11:15:16;27.10;87.80
17364;DHT22;8799;43.594;13.526;2022-08-25T11:17:50;27.10;86.90
17364;DHT22;8799;43.594;13.526;2022-08-25T11:20:23;27.10;86.30
17364;DHT22;8799;43.594;13.526;2022-08-25T11:23:05;27.10;85.80
17364;DHT22;8799;43.594;13.526;2022-08-25T11:25:39;27.10;86.00
17364;DHT22;8799;43.594;13.526;2022-08-25T11:28:11;27.10;86.30
17364;DHT22;8799;43.594;13.526;2022-08-25T11:30:40;27.20;86.80
17364;DHT22;8799;43.594;13.526;2022-08-25T11:33:11;27.10;86.70
17364;DHT22;8799;43.594;13.526;2022-08-25T11:35:43;27.20;86.90
17364;DHT22;8799;43.594;13.526;2022-08-25T11:38:23;27.20;87.20
17364;DHT22;8799;43.594;13.526;2022-08-25T11:41:16;27.20;87.40
17364;DHT22;8799;43.594;13.526;2022-08-25T11:46:54;27.20;86.20
17364;DHT22;8799;43.594;13.526;2022-08-25T11:49:47;27.20;87.00
17364;DHT22;8799;43.594;13.526;2022-08-25T11:52:47;27.20;87.20
17364;DHT22;8799;43.594;13.526;2022-08-25T11:55:20;27.20;87.40
17364;DHT22;8799;43.594;13.526;2022-08-25T12:00:41;27.20;87.30
17364;DHT22;8799;43.594;13.526;2022-08-25T12:06:30;27.30;86.30
17364;DHT22;8799;43.594;13.526;2022-08-25T12:09:18;27.30;85.50
17364;DHT22;8799;43.594;13.526;2022-08-25T12:11:51;27.30;85.70
17364;DHT22;8799;43.594;13.526;2022-08-25T12:14:50;27.30;86.10
17364;DHT22;8799;43.594;13.526;2022-08-25T12:17:25;27.50;86.30
17364;DHT22;8799;43.594;13.526;2022-08-25T12:19:57;27.30;86.30
17364;DHT22;8799;43.594;13.526;2022-08-25T12:22:51;27.20;86.60
17364;DHT22;8799;43.594;13.526;2022-08-25T12:25:45;27.20;86.90
17364;DHT22;8799;43.594;13.526;2022-08-25T12:28:30;27.30;87.30
17364;DHT22;8799;43.594;13.526;2022-08-25T12:31:06;27.30;87.10
17364;DHT22;8799;43.594;13.526;2022-08-25T12:33:46;27.20;87.20
17364;DHT22;8799;43.594;13.526;2022-08-25T12:36:54;27.30;87.20
17364;DHT22;8799;43.594;13.526;2022-08-25T12:39:28;27.50;87.10
17364;DHT22;8799;43.594;13.526;2022-08-25T12:42:00;27.30;87.10
17364;DHT22;8799;43.594;13.526;2022-08-25T12:44:36;27.30;86.40
17364;DHT22;8799;43.594;13.526;2022-08-25T12:47:24;27.30;85.50
17364;DHT22;8799;43.594;13.526;2022-08-25T12:49:58;27.30;85.60
17364;DHT22;8799;43.594;13.526;2022-08-25T12:52:47;27.30;85.60
17364;DHT22;8799;43.594;13.526;2022-08-25T12:55:16;27.30;85.40
17364;DHT22;8799;43.594;13.526;2022-08-25T12:57:50;27.30;85.80
17364;DHT22;8799;43.594;13.526;2022-08-25T13:00:26;27.30;85.90
17364;DHT22;8799;43.594;13.526;2022-08-25T13:03:41;27.30;85.40
17364;DHT22;8799;43.594;13.526;2022-08-25T13:06:44;26.90;85.80
17364;DHT22;8799;43.594;13.526;2022-08-25T13:09:51;27.40;86.70
17364;DHT22;8799;43.594;13.526;2022-08-25T13:12:26;27.40;85.50
17364;DHT22;8799;43.594;13.526;2022-08-25T13:14:57;27.40;85.60
17364;DHT22;8799;43.594;13.526;2022-08-25T13:17:26;27.40;86.00
17364;DHT22;8799;43.594;13.526;2022-08-25T13:20:12;27.40;85.90
17364;DHT22;8799;43.594;13.526;2022-08-25T13:22:43;27.40;84.50
17364;DHT22;8799;43.594;13.526;2022-08-25T13:25:18;27.40;83.90
17364;DHT22;8799;43.594;13.526;2022-08-25T13:27:49;27.40;84.70
17364;DHT22;8799;43.594;13.526;2022-08-25T13:30:27;27.40;85.10
17364;DHT22;8799;43.594;13.526;2022-08-25T13:32:56;27.50;84.70
17364;DHT22;8799;43.594;13.526;2022-08-25T13:35:28;27.50;84.50
17364;DHT22;8799;43.594;13.526;2022-08-25T13:38:11;27.50;84.40
17364;DHT22;8799;43.594;13.526;2022-08-25T13:40:37;27.50;84.10
17364;DHT22;8799;43.594;13.526;2022-08-25T13:43:08;27.50;85.00
17364;DHT22;8799;43.594;13.526;2022-08-25T13:45:38;27.50;86.20
17364;DHT22;8799;43.594;13.526;2022-08-25T13:48:08;27.40;87.40
17364;DHT22;8799;43.594;13.526;2022-08-25T13:50:38;27.40;90.10
17364;DHT22;8799;43.594;13.526;2022-08-25T13:53:11;27.50;90.90
17364;DHT22;8799;43.594;13.526;2022-08-25T13:55:48;27.50;92.00
17364;DHT22;8799;43.594;13.526;2022-08-25T13:58:20;27.50;92.20
17364;DHT22;8799;43.594;13.526;2022-08-25T14:01:01;27.50;92.50
17364;DHT22;8799;43.594;13.526;2022-08-25T14:03:36;27.40;93.40
17364;DHT22;8799;43.594;13.526;2022-08-25T14:06:08;27.40;92.70
17364;DHT22;8799;43.594;13.526;2022-08-25T14:08:39;27.40;93.00
17364;DHT22;8799;43.594;13.526;2022-08-25T14:11:13;27.40;93.40
17364;DHT22;8799;43.594;13.526;2022-08-25T14:13:43;27.40;93.70
17364;DHT22;8799;43.594;13.526;2022-08-25T14:16:14;27.40;91.50
17364;DHT22;8799;43.594;13.526;2022-08-25T14:18:47;27.30;90.40
17364;DHT22;8799;43.594;13.526;2022-08-25T14:21:19;27.30;91.10
17364;DHT22;8799;43.594;13.526;2022-08-25T14:23:47;27.30;91.50
17364;DHT22;8799;43.594;13.526;2022-08-25T14:26:15;27.30;92.20
17364;DHT22;8799;43.594;13.526;2022-08-25T14:28:43;27.30;92.60
17364;DHT22;8799;43.594;13.526;2022-08-25T14:31:13;27.30;93.50
17364;DHT22;8799;43.594;13.526;2022-08-25T14:33:45;27.30;94.20
17364;DHT22;8799;43.594;13.526;2022-08-25T14:36:17;27.30;94.30
17364;DHT22;8799;43.594;13.526;2022-08-25T14:38:46;27.30;94.50
17364;DHT22;8799;43.594;13.526;2022-08-25T14:41:14;27.30;94.80
17364;DHT22;8799;43.594;13.526;2022-08-25T14:43:42;27.40;94.40
17364;DHT22;8799;43.594;13.526;2022-08-25T14:46:15;27.30;94.40
17364;DHT22;8799;43.594;13.526;2022-08-25T14:48:46;27.30;94.40
17364;DHT22;8799;43.594;13.526;2022-08-25T14:51:14;27.30;92.20
17364;DHT22;8799;43.594;13.526;2022-08-25T14:53:44;27.30;90.20
17364;DHT22;8799;43.594;13.526;2022-08-25T14:56:12;27.30;90.40
17364;DHT22;8799;43.594;13.526;2022-08-25T14:58:40;27.30;89.70
17364;DHT22;8799;43.594;13.526;2022-08-25T15:01:11;27.30;89.20
17364;DHT22;8799;43.594;13.526;2022-08-25T15:03:44;27.30;89.40
17364;DHT22;8799;43.594;13.526;2022-08-25T15:06:15;27.30;89.70
17364;DHT22;8799;43.594;13.526;2022-08-25T15:08:45;27.30;89.80
17364;DHT22;8799;43.594;13.526;2022-08-25T15:11:31;27.20;88.50
17364;DHT22;8799;43.594;13.526;2022-08-25T15:13:59;27.20;88.60
17364;DHT22;8799;43.594;13.526;2022-08-25T15:16:29;27.20;89.10
17364;DHT22;8799;43.594;13.526;2022-08-25T15:18:58;27.20;89.10
17364;DHT22;8799;43.594;13.526;2022-08-25T15:21:26;27.30;88.60
17364;DHT22;8799;43.594;13.526;2022-08-25T15:23:56;27.20;87.70
17364;DHT22;8799;43.594;13.526;2022-08-25T15:26:24;27.20;88.00
17364;DHT22;8799;43.594;13.526;2022-08-25T15:28:52;27.30;87.20
17364;DHT22;8799;43.594;13.526;2022-08-25T15:31:20;27.30;87.70
17364;DHT22;8799;43.594;13.526;2022-08-25T15:33:48;27.20;87.80
17364;DHT22;8799;43.594;13.526;2022-08-25T15:36:19;27.20;87.40
17364;DHT22;8799;43.594;13.526;2022-08-25T15:59:25;27.10;88.20
17364;DHT22;8799;43.594;13.526;2022-08-25T16:01:58;27.30;87.70
17364;DHT22;8799;43.594;13.526;2022-08-25T16:04:27;27.30;87.30
17364;DHT22;8799;43.594;13.526;2022-08-25T16:06:55;27.30;86.80
17364;DHT22;8799;43.594;13.526;2022-08-25T16:09:23;27.30;86.70
17364;DHT22;8799;43.594;13.526;2022-08-25T16:11:51;27.20;86.70
17364;DHT22;8799;43.594;13.526;2022-08-25T16:14:18;27.20;86.90
17364;DHT22;8799;43.594;13.526;2022-08-25T16:16:48;27.20;86.80
17364;DHT22;8799;43.594;13.526;2022-08-25T16:19:15;27.10;87.10
17364;DHT22;8799;43.594;13.526;2022-08-25T16:21:43;27.10;87.40
17364;DHT22;8799;43.594;13.526;2022-08-25T16:24:11;27.10;87.10
17364;DHT22;8799;43.594;13.526;2022-08-25T16:26:38;27.10;86.00
17364;DHT22;8799;43.594;13.526;2022-08-25T16:29:12;27.10;86.40
17364;DHT22;8799;43.594;13.526;2022-08-25T16:31:40;27.10;86.80
17364;DHT22;8799;43.594;13.526;2022-08-25T16:34:09;27.00;87.10
17364;DHT22;8799;43.594;13.526;2022-08-25T16:36:37;27.00;87.20
17364;DHT22;8799;43.594;13.526;2022-08-25T16:39:04;27.00;87.40
17364;DHT22;8799;43.594;13.526;2022-08-25T16:41:32;27.00;87.40
17364;DHT22;8799;43.594;13.526;2022-08-25T16:44:01;27.00;87.50
17364;DHT22;8799;43.594;13.526;2022-08-25T16:46:29;27.00;87.70
17364;DHT22;8799;43.594;13.526;2022-08-25T16:48:59;27.00;87.60
17364;DHT22;8799;43.594;13.526;2022-08-25T16:51:28;27.00;87.40
17364;DHT22;8799;43.594;13.526;2022-08-25T16:53:56;27.00;87.30